createdAt,value
2019-04-16T00:01:14.035Z,14.80
2019-04-16T00:02:57.841Z,14.83
2019-04-16T00:05:09.956Z,18.17
2019-04-16T00:07:09.386Z,17.10
2019-04-16T00:08:50.230Z,18.30
2019-04-16T00:10:27.625Z,19.40
2019-04-16T00:12:09.995Z,16.07
2019-04-16T00:13:52.367Z,17.10
2019-04-16T00:15:26.973Z,16.73
2019-04-16T00:17:01.742Z,18.75
2019-04-16T00:18:36.113Z,17.17
2019-04-16T00:20:12.499Z,18.45
2019-04-16T00:22:00.004Z,16.70
2019-04-16T00:23:48.943Z,18.15
2019-04-16T00:25:23.352Z,17.05
2019-04-16T00:26:59.085Z,18.73
2019-04-16T00:28:33.784Z,15.65
2019-04-16T00:30:08.560Z,16.48
2019-04-16T00:31:44.677Z,16.70
2019-04-16T00:33:19.080Z,16.75
2019-04-16T00:34:53.456Z,17.27
2019-04-16T00:36:27.806Z,18.42
2019-04-16T00:38:02.160Z,15.85
2019-04-16T00:39:36.561Z,18.57
2019-04-16T00:41:10.952Z,17.07
2019-04-16T00:42:45.359Z,20.35
2019-04-16T00:44:19.796Z,21.48
2019-04-16T00:45:54.172Z,18.02
2019-04-16T00:47:28.782Z,18.67
2019-04-16T00:49:03.482Z,17.32
2019-04-16T00:50:37.915Z,16.67
2019-04-16T00:52:12.549Z,15.93
2019-04-16T00:53:46.973Z,17.70
2019-04-16T00:55:21.381Z,16.50
2019-04-16T00:56:56.111Z,16.73
2019-04-16T00:58:30.653Z,15.48
2019-04-16T01:00:06.464Z,15.93
2019-04-16T01:01:40.825Z,17.62
2019-04-16T01:03:15.576Z,16.75
2019-04-16T01:04:49.950Z,13.95
2019-04-16T01:06:24.301Z,16.75
2019-04-16T01:07:58.902Z,15.30
2019-04-16T01:09:33.529Z,14.38
2019-04-16T01:11:07.974Z,18.52
2019-04-16T01:12:42.341Z,15.55
2019-04-16T01:14:16.720Z,18.32
2019-04-16T01:15:51.077Z,14.87
2019-04-16T01:17:25.933Z,16.95
2019-04-16T01:19:00.350Z,17.60
2019-04-16T01:20:34.734Z,19.57
2019-04-16T01:22:09.678Z,15.50
2019-04-16T01:23:48.379Z,16.30
2019-04-16T01:25:23.165Z,16.82
2019-04-16T01:26:58.270Z,15.13
2019-04-16T01:28:34.457Z,15.72
2019-04-16T01:30:11.322Z,15.03
2019-04-16T01:32:09.836Z,16.60
2019-04-16T01:33:53.049Z,15.98
2019-04-16T01:35:51.736Z,14.87
2019-04-16T01:37:41.569Z,16.87
2019-04-16T01:39:18.353Z,17.12
2019-04-16T01:40:57.946Z,14.90
2019-04-16T01:42:32.397Z,15.45
2019-04-16T01:44:06.744Z,17.05
2019-04-16T01:45:41.089Z,13.95
2019-04-16T01:47:15.444Z,15.80
2019-04-16T01:48:49.897Z,16.17
2019-04-16T01:50:24.320Z,16.82
2019-04-16T01:51:58.740Z,16.35
2019-04-16T01:53:33.364Z,15.58
2019-04-16T01:55:09.433Z,14.28
2019-04-16T01:56:44.302Z,17.62
2019-04-16T01:58:18.648Z,18.98
2019-04-16T01:59:53.336Z,18.40
2019-04-16T02:01:27.690Z,18.85
2019-04-16T02:03:02.371Z,14.75
2019-04-16T02:04:36.813Z,16.75
2019-04-16T02:06:11.327Z,17.00
2019-04-16T02:07:45.705Z,16.42
2019-04-16T02:09:22.795Z,16.95
2019-04-16T02:10:56.390Z,19.30
2019-04-16T02:12:30.736Z,16.23
2019-04-16T02:14:05.305Z,16.00
2019-04-16T02:15:39.660Z,17.23
2019-04-16T02:17:14.322Z,17.57
2019-04-16T02:18:48.985Z,15.28
2019-04-16T02:20:23.617Z,17.48
2019-04-16T02:21:58.024Z,19.23
2019-04-16T02:23:32.469Z,17.30
2019-04-16T02:25:08.386Z,17.85
2019-04-16T02:26:43.016Z,17.45
2019-04-16T02:28:17.417Z,17.73
2019-04-16T02:29:53.712Z,17.30
2019-04-16T02:31:27.826Z,17.87
2019-04-16T02:33:02.520Z,18.17
2019-04-16T02:34:36.891Z,17.10
2019-04-16T02:36:11.584Z,19.20
2019-04-16T02:37:46.010Z,17.02
2019-04-16T02:39:25.566Z,16.05
2019-04-16T02:40:56.918Z,19.60
2019-04-16T02:42:32.184Z,17.55
2019-04-16T02:44:13.453Z,17.98
2019-04-16T02:45:43.119Z,16.50
2019-04-16T02:47:17.804Z,18.20
2019-04-16T02:48:52.319Z,16.00
2019-04-16T02:50:41.372Z,17.73
2019-04-16T02:52:51.096Z,15.05
2019-04-16T02:54:34.011Z,14.55
2019-04-16T02:56:36.062Z,17.02
2019-04-16T02:58:13.894Z,17.65
2019-04-16T02:59:48.598Z,16.05
2019-04-16T03:01:37.741Z,17.40
2019-04-16T03:03:16.937Z,18.30
2019-04-16T03:04:58.421Z,16.62
2019-04-16T03:06:33.166Z,16.85
2019-04-16T03:08:08.042Z,16.80
2019-04-16T03:09:42.569Z,20.12
2019-04-16T03:11:18.043Z,18.00
2019-04-16T03:12:52.943Z,17.48
2019-04-16T03:14:30.018Z,15.43
2019-04-16T03:16:11.376Z,16.12
2019-04-16T03:17:46.221Z,15.40
2019-04-16T03:19:26.012Z,17.62
2019-04-16T03:21:00.824Z,16.00
2019-04-16T03:22:35.294Z,17.07
2019-04-16T03:24:10.079Z,16.57
2019-04-16T03:25:45.156Z,17.85
2019-04-16T03:27:22.269Z,15.48
2019-04-16T03:28:59.228Z,17.73
2019-04-16T03:30:40.469Z,19.35
2019-04-16T03:32:13.478Z,18.35
2019-04-16T03:33:50.409Z,17.70
2019-04-16T03:35:25.516Z,19.98
2019-04-16T03:36:58.538Z,18.07
2019-04-16T03:38:36.758Z,20.85
2019-04-16T03:40:17.089Z,19.90
2019-04-16T03:41:46.457Z,21.30
2019-04-16T03:43:21.285Z,20.02
2019-04-16T03:44:55.725Z,19.35
2019-04-16T03:46:30.156Z,20.25
2019-04-16T03:48:04.585Z,20.52
2019-04-16T03:49:38.941Z,20.57
2019-04-16T03:51:13.292Z,22.55
2019-04-16T03:52:47.910Z,20.40
2019-04-16T03:54:23.173Z,23.50
2019-04-16T03:55:58.373Z,20.08
2019-04-16T03:57:33.909Z,19.50
2019-04-16T03:59:11.844Z,22.62
2019-04-16T04:00:45.064Z,23.02
2019-04-16T04:02:22.864Z,20.80
2019-04-16T04:03:57.534Z,23.55
2019-04-16T04:05:35.114Z,21.55
2019-04-16T04:07:11.712Z,21.77
2019-04-16T04:08:47.996Z,21.82
2019-04-16T04:10:30.254Z,19.90
2019-04-16T04:11:57.857Z,19.95
2019-04-16T04:13:32.201Z,18.98
2019-04-16T04:15:06.948Z,20.48
2019-04-16T04:16:41.523Z,19.32
2019-04-16T04:18:15.881Z,22.20
2019-04-16T04:19:50.237Z,19.55
2019-04-16T04:21:24.746Z,20.57
2019-04-16T04:22:59.391Z,16.55
2019-04-16T04:24:33.784Z,21.07
2019-04-16T04:26:08.890Z,18.30
2019-04-16T04:27:46.733Z,16.67
2019-04-16T04:29:23.894Z,21.37
2019-04-16T04:30:57.654Z,20.17
2019-04-16T04:32:35.451Z,19.23
2019-04-16T04:34:10.312Z,19.15
2019-04-16T04:35:45.174Z,20.10
2019-04-16T04:37:19.648Z,17.75
2019-04-16T04:38:54.040Z,17.82
2019-04-16T04:40:28.806Z,18.92
2019-04-16T04:42:03.582Z,16.37
2019-04-16T04:43:39.001Z,18.00
2019-04-16T04:45:13.961Z,19.00
2019-04-16T04:46:48.762Z,18.52
2019-04-16T04:48:24.359Z,18.57
2019-04-16T04:49:59.577Z,19.42
2019-04-16T04:51:36.398Z,23.77
2019-04-16T04:53:11.445Z,17.62
2019-04-16T04:54:46.044Z,21.75
2019-04-16T04:56:20.461Z,19.17
2019-04-16T04:57:54.864Z,19.62
2019-04-16T04:59:29.214Z,18.77
2019-04-16T05:01:03.724Z,17.23
2019-04-16T05:02:39.025Z,19.02
2019-04-16T05:04:32.797Z,16.73
2019-04-16T05:06:08.184Z,16.35
2019-04-16T05:07:42.549Z,18.23
2019-04-16T05:09:17.166Z,16.52
2019-04-16T05:10:58.845Z,17.05
2019-04-16T05:12:27.593Z,15.70
2019-04-16T05:14:01.961Z,17.67
2019-04-16T05:15:36.373Z,13.68
2019-04-16T05:17:10.808Z,16.85
2019-04-16T05:18:45.161Z,15.70
2019-04-16T05:20:20.110Z,18.90
2019-04-16T05:21:54.902Z,16.25
2019-04-16T05:23:29.978Z,16.05
2019-04-16T05:25:05.344Z,18.57
2019-04-16T05:26:40.116Z,17.35
2019-04-16T05:28:14.893Z,14.95
2019-04-16T05:29:49.719Z,14.93
2019-04-16T05:31:25.664Z,16.57
2019-04-16T05:33:04.940Z,16.25
2019-04-16T05:34:38.416Z,18.20
2019-04-16T05:36:15.142Z,18.82
2019-04-16T05:37:51.468Z,16.20
2019-04-16T05:39:28.762Z,16.80
2019-04-16T05:41:13.149Z,15.55
2019-04-16T05:42:39.580Z,16.12
2019-04-16T05:44:13.952Z,13.80
2019-04-16T05:45:48.332Z,18.73
2019-04-16T05:47:23.159Z,15.93
2019-04-16T05:48:57.505Z,16.57
2019-04-16T05:50:32.602Z,16.67
2019-04-16T05:52:07.059Z,13.98
2019-04-16T05:53:43.058Z,14.60
2019-04-16T05:55:26.081Z,17.27
2019-04-16T05:57:00.634Z,15.10
2019-04-16T05:58:35.106Z,15.95
2019-04-16T06:00:18.618Z,13.32
2019-04-16T06:02:00.898Z,14.03
2019-04-16T06:03:35.270Z,16.25
2019-04-16T06:05:09.889Z,16.62
2019-04-16T06:06:44.264Z,14.38
2019-04-16T06:08:18.731Z,14.80
2019-04-16T06:09:53.132Z,14.07
2019-04-16T06:11:35.030Z,13.43
2019-04-16T06:13:14.089Z,13.98
2019-04-16T06:15:03.060Z,14.85
2019-04-16T06:16:57.695Z,14.95
2019-04-16T06:19:08.548Z,13.50
2019-04-16T06:20:59.188Z,13.20
2019-04-16T06:23:00.986Z,13.80
2019-04-16T06:24:55.344Z,12.50
2019-04-16T06:26:48.804Z,16.32
2019-04-16T06:28:48.039Z,13.05
2019-04-16T06:30:37.482Z,13.98
2019-04-16T06:32:34.942Z,14.15
2019-04-16T06:34:17.025Z,15.13
2019-04-16T06:36:16.528Z,12.80
2019-04-16T06:37:58.438Z,15.10
2019-04-16T06:39:36.721Z,12.82
2019-04-16T06:41:15.529Z,14.35
2019-04-16T06:42:55.097Z,14.10
2019-04-16T06:44:32.097Z,11.88
2019-04-16T06:46:39.845Z,14.85
2019-04-16T06:48:21.517Z,12.80
2019-04-16T06:50:30.697Z,13.35
2019-04-16T06:52:08.458Z,12.82
2019-04-16T06:54:11.400Z,14.18
2019-04-16T06:56:05.542Z,14.35
2019-04-16T06:58:12.593Z,13.97
2019-04-16T07:00:02.423Z,13.05
2019-04-16T07:01:54.190Z,12.03
2019-04-16T07:03:39.659Z,14.03
2019-04-16T07:05:34.454Z,14.30
2019-04-16T07:07:39.687Z,13.00
2019-04-16T07:09:40.877Z,13.07
2019-04-16T07:11:06.268Z,13.73
2019-04-16T07:12:40.978Z,16.07
2019-04-16T07:14:16.714Z,13.13
2019-04-16T07:15:53.309Z,13.23
2019-04-16T07:17:32.926Z,11.77
2019-04-16T07:19:03.709Z,12.20
2019-04-16T07:20:38.094Z,13.10
2019-04-16T07:22:12.765Z,14.73
2019-04-16T07:23:47.416Z,13.43
2019-04-16T07:25:22.407Z,12.50
2019-04-16T07:26:58.147Z,12.27
2019-04-16T07:29:04.215Z,16.33
2019-04-16T07:30:47.314Z,13.83
2019-04-16T07:32:29.602Z,14.60
2019-04-16T07:34:23.122Z,24.33
2019-04-16T07:36:26.750Z,12.83
2019-04-16T07:38:12.038Z,12.87
2019-04-16T07:43:44.236Z,11.23
2019-04-16T07:45:50.569Z,12.93
2019-04-16T07:47:52.917Z,10.87
2019-04-16T07:49:32.174Z,11.40
2019-04-16T07:51:16.748Z,10.73
2019-04-16T07:53:13.551Z,11.33
2019-04-16T07:55:03.034Z,11.50
2019-04-16T07:56:39.342Z,11.33
2019-04-16T07:58:13.969Z,13.80
2019-04-16T07:59:48.558Z,14.63
2019-04-16T08:01:23.072Z,10.30
2019-04-16T08:02:57.655Z,11.17
2019-04-16T08:04:35.221Z,10.10
2019-04-16T08:06:10.694Z,12.00
2019-04-16T08:07:44.245Z,11.53
2019-04-16T08:09:18.696Z,11.17
2019-04-16T08:10:53.301Z,13.03
2019-04-16T08:12:30.450Z,11.33
2019-04-16T08:14:08.876Z,12.03
2019-04-16T08:15:40.651Z,9.97
2019-04-16T08:17:15.016Z,12.90
2019-04-16T08:18:50.661Z,11.13
2019-04-16T08:20:25.551Z,12.33
2019-04-16T08:22:00.182Z,11.63
2019-04-16T08:23:39.187Z,12.30
2019-04-16T08:25:13.483Z,11.13
2019-04-16T08:26:47.836Z,11.17
2019-04-16T08:28:22.446Z,12.07
2019-04-16T08:30:02.179Z,12.73
2019-04-16T08:31:35.754Z,13.00
2019-04-16T08:33:11.110Z,10.97
2019-04-16T08:34:46.193Z,12.73
2019-04-16T08:36:20.682Z,13.17
2019-04-16T08:37:57.840Z,12.83
2019-04-16T08:39:31.325Z,10.37
2019-04-16T08:41:05.742Z,9.27
2019-04-16T08:42:44.569Z,10.40
2019-04-16T08:44:17.208Z,12.70
2019-04-16T08:45:52.346Z,10.27
2019-04-16T08:47:27.081Z,9.77
2019-04-16T08:49:01.434Z,13.67
2019-04-16T08:50:35.792Z,11.63
2019-04-16T08:52:11.020Z,10.17
2019-04-16T08:53:46.742Z,10.93
2019-04-16T08:55:23.494Z,12.13
2019-04-16T08:56:57.864Z,10.10
2019-04-16T08:58:32.236Z,9.83
2019-04-16T09:00:14.097Z,10.77
2019-04-16T09:01:45.761Z,10.60
2019-04-16T09:03:20.121Z,10.30
2019-04-16T09:04:54.503Z,9.43
2019-04-16T09:06:29.133Z,9.80
2019-04-16T09:08:14.118Z,9.83
2019-04-16T09:09:57.034Z,10.03
2019-04-16T09:11:35.101Z,11.60
2019-04-16T09:13:09.192Z,9.97
2019-04-16T09:14:48.508Z,10.63
2019-04-16T09:16:23.666Z,10.10
2019-04-16T09:18:20.380Z,10.60
2019-04-16T09:20:01.725Z,9.73
2019-04-16T09:21:35.608Z,10.00
2019-04-16T09:23:10.029Z,12.37
2019-04-16T09:25:01.516Z,10.23
2019-04-16T09:26:44.005Z,9.17
2019-04-16T09:28:26.439Z,12.73
2019-04-16T09:30:18.890Z,10.57
2019-04-16T09:32:18.294Z,9.93
2019-04-16T09:33:57.481Z,9.67
2019-04-16T09:35:39.583Z,9.57
2019-04-16T09:37:25.402Z,9.57
2019-04-16T09:39:09.137Z,10.30
2019-04-16T09:40:55.365Z,11.57
2019-04-16T09:42:29.751Z,10.17
2019-04-16T09:44:04.501Z,10.93
2019-04-16T09:45:38.882Z,10.20
2019-04-16T09:47:13.849Z,8.83
2019-04-16T09:48:50.021Z,9.37
2019-04-16T09:50:24.751Z,9.97
2019-04-16T09:51:59.517Z,10.20
2019-04-16T09:53:37.541Z,10.23
2019-04-16T09:55:10.377Z,13.67
2019-04-16T09:56:45.145Z,10.23
2019-04-16T09:58:22.494Z,11.13
2019-04-16T10:00:00.989Z,9.10
2019-04-16T10:01:58.073Z,9.83
2019-04-16T10:03:35.622Z,9.73
2019-04-16T10:05:10.446Z,10.00
2019-04-16T10:06:45.112Z,8.77
2019-04-16T10:08:19.868Z,10.37
2019-04-16T10:09:55.278Z,9.13
2019-04-16T10:11:32.783Z,12.67
2019-04-16T10:13:06.068Z,9.77
2019-04-16T10:14:40.618Z,10.00
2019-04-16T10:16:15.389Z,10.60
2019-04-16T10:17:49.836Z,9.87
2019-04-16T10:19:24.271Z,9.73
2019-04-16T10:20:59.134Z,10.57
2019-04-16T10:22:33.580Z,10.27
2019-04-16T10:24:45.285Z,10.83
2019-04-16T10:26:20.692Z,8.57
2019-04-16T10:27:58.585Z,10.67
2019-04-16T10:29:33.214Z,10.87
2019-04-16T10:31:09.208Z,10.17
2019-04-16T10:32:43.723Z,9.97
2019-04-16T10:34:18.502Z,9.67
2019-04-16T10:35:52.943Z,11.97
2019-04-16T10:37:27.399Z,10.40
2019-04-16T10:39:21.668Z,11.47
2019-04-16T10:41:04.312Z,11.13
2019-04-16T10:42:48.579Z,11.23
2019-04-16T10:44:33.124Z,12.17
2019-04-16T10:46:17.198Z,11.43
2019-04-16T10:48:05.057Z,10.90
2019-04-16T10:49:49.186Z,11.77
2019-04-16T10:51:30.988Z,12.23
2019-04-16T10:53:11.752Z,12.17
2019-04-16T10:55:14.620Z,13.80
2019-04-16T10:57:10.134Z,12.67
2019-04-16T10:59:04.425Z,11.73
2019-04-16T11:00:49.467Z,12.83
2019-04-16T11:02:36.607Z,12.07
2019-04-16T11:04:22.708Z,10.90
2019-04-16T11:06:00.296Z,10.10
2019-04-16T11:07:35.097Z,11.67
2019-04-16T11:09:09.691Z,10.50
2019-04-16T11:10:44.366Z,10.77
2019-04-16T11:12:19.893Z,13.03
2019-04-16T11:14:00.066Z,13.00
2019-04-16T11:15:30.804Z,11.07
2019-04-16T11:17:05.975Z,9.77
2019-04-16T11:18:40.847Z,12.73
2019-04-16T11:20:16.792Z,9.63
2019-04-16T11:21:51.818Z,11.17
2019-04-16T11:23:26.620Z,10.77
2019-04-16T11:25:01.502Z,10.07
2019-04-16T11:26:36.214Z,12.23
2019-04-16T11:28:13.726Z,10.33
2019-04-16T11:29:46.781Z,10.17
2019-04-16T11:31:22.412Z,11.23
2019-04-16T11:32:56.932Z,10.57
2019-04-16T11:34:31.609Z,10.37
2019-04-16T11:36:18.783Z,10.00
2019-04-16T11:37:44.483Z,10.47
2019-04-16T11:39:18.298Z,11.30
2019-04-16T11:40:52.724Z,9.50
2019-04-16T11:42:27.405Z,10.50
2019-04-16T11:44:14.079Z,12.73
2019-04-16T11:45:38.261Z,9.93
2019-04-16T11:47:12.762Z,10.73
2019-04-16T11:48:50.215Z,9.67
2019-04-16T11:50:23.621Z,9.67
2019-04-16T11:51:58.358Z,8.90
2019-04-16T11:53:32.866Z,8.83
2019-04-16T11:55:07.559Z,10.53
2019-04-16T11:56:44.026Z,10.93
2019-04-16T11:58:26.870Z,8.80
2019-04-16T12:00:07.459Z,9.97
2019-04-16T12:01:48.146Z,8.93
2019-04-16T12:03:29.138Z,11.00
2019-04-16T12:05:16.780Z,9.77
2019-04-16T12:07:05.592Z,9.53
2019-04-16T12:09:10.889Z,9.37
2019-04-16T12:11:01.420Z,9.87
2019-04-16T12:12:53.886Z,9.60
2019-04-16T12:14:46.557Z,8.87
2019-04-16T12:16:36.509Z,9.90
2019-04-16T12:18:22.987Z,10.13
2019-04-16T12:20:15.880Z,9.63
2019-04-16T12:22:18.858Z,8.90
2019-04-16T12:24:13.477Z,8.80
2019-04-16T12:26:08.895Z,9.00
2019-04-16T12:28:05.738Z,7.90
2019-04-16T12:30:09.261Z,8.67
2019-04-16T12:31:54.711Z,8.37
2019-04-16T12:33:36.472Z,8.53
2019-04-16T12:35:17.843Z,8.93
2019-04-16T12:37:17.483Z,8.23
2019-04-16T12:39:10.002Z,9.53
2019-04-16T12:41:18.771Z,8.03
2019-04-16T12:43:03.454Z,9.67
2019-04-16T12:44:51.388Z,8.20
2019-04-16T12:46:39.297Z,10.73
2019-04-16T12:48:26.243Z,7.50
2019-04-16T12:50:22.302Z,11.00
2019-04-16T12:52:17.532Z,11.67
2019-04-16T12:54:03.273Z,10.00
2019-04-16T12:55:55.538Z,8.90
2019-04-16T12:57:37.813Z,8.07
2019-04-16T12:59:26.335Z,8.87
2019-04-16T13:01:14.867Z,9.87
2019-04-16T13:03:17.516Z,8.73
2019-04-16T13:05:01.172Z,7.67
2019-04-16T13:06:40.456Z,7.87
2019-04-16T13:08:36.958Z,8.63
2019-04-16T13:10:17.893Z,7.80
2019-04-16T13:12:26.489Z,9.17
2019-04-16T13:14:13.561Z,7.90
2019-04-16T13:15:55.976Z,8.00
2019-04-16T13:17:50.830Z,10.77
2019-04-16T13:20:02.715Z,8.20
2019-04-16T13:21:50.391Z,9.33
2019-04-16T13:23:34.050Z,8.93
2019-04-16T13:25:34.228Z,9.07
2019-04-16T13:27:13.770Z,9.17
2019-04-16T13:28:48.800Z,8.60
2019-04-16T13:30:23.641Z,8.83
2019-04-16T13:31:58.647Z,9.20
2019-04-16T13:33:33.719Z,8.87
2019-04-16T13:35:08.380Z,9.70
2019-04-16T13:36:42.999Z,9.43
2019-04-16T13:38:19.417Z,9.23
2019-04-16T13:40:09.309Z,8.90
2019-04-16T13:41:44.068Z,9.03
2019-04-16T13:43:20.905Z,8.90
2019-04-16T13:45:17.911Z,8.13
2019-04-16T13:46:51.195Z,8.87
2019-04-16T13:49:00.709Z,10.60
2019-04-16T13:50:42.785Z,9.50
2019-04-16T13:52:20.490Z,12.37
2019-04-16T13:54:16.122Z,11.67
2019-04-16T13:56:25.403Z,10.80
2019-04-16T13:58:04.188Z,11.03
2019-04-16T14:00:03.031Z,9.30
2019-04-16T14:01:39.269Z,8.43
2019-04-16T14:03:16.594Z,8.80
2019-04-16T14:04:51.015Z,7.83
2019-04-16T14:06:25.388Z,8.03
2019-04-16T14:07:59.757Z,8.07
2019-04-16T14:09:34.205Z,9.50
2019-04-16T14:11:08.555Z,9.00
2019-04-16T14:12:43.251Z,8.20
2019-04-16T14:14:18.783Z,9.33
2019-04-16T14:15:53.756Z,8.43
2019-04-16T14:17:28.500Z,8.33
2019-04-16T14:19:06.154Z,8.30
2019-04-16T14:20:39.016Z,8.97
2019-04-16T14:22:13.393Z,10.73
2019-04-16T14:23:48.405Z,12.47
2019-04-16T14:25:22.769Z,9.40
2019-04-16T14:26:57.190Z,8.07
2019-04-16T14:28:34.307Z,8.33
2019-04-16T14:30:15.763Z,9.50
2019-04-16T14:31:50.113Z,9.20
2019-04-16T14:33:30.874Z,10.93
2019-04-16T14:35:10.593Z,9.63
2019-04-16T14:36:44.972Z,9.10
2019-04-16T14:38:25.082Z,13.87
2019-04-16T14:40:24.992Z,9.50
2019-04-16T14:42:00.150Z,11.17
2019-04-16T14:43:38.085Z,9.67
2019-04-16T14:45:19.983Z,9.90
2019-04-16T14:46:57.452Z,8.83
2019-04-16T14:48:31.334Z,11.73
2019-04-16T14:50:06.438Z,9.07
2019-04-16T14:51:41.216Z,11.97
2019-04-16T14:53:28.770Z,10.83
2019-04-16T14:55:09.822Z,8.83
2019-04-16T14:56:50.818Z,11.13
2019-04-16T14:58:46.150Z,13.93
2019-04-16T15:00:33.507Z,10.50
2019-04-16T15:02:29.397Z,10.37
2019-04-16T15:04:25.753Z,9.33
2019-04-16T15:06:19.826Z,9.63
2019-04-16T15:08:09.219Z,10.10
2019-04-16T15:10:02.483Z,8.87
2019-04-16T15:11:58.342Z,8.23
2019-04-16T15:13:59.464Z,12.03
2019-04-16T15:15:46.902Z,8.83
2019-04-16T15:17:30.267Z,11.57
2019-04-16T15:19:22.883Z,11.17
2019-04-16T15:21:16.394Z,12.37
2019-04-16T15:23:00.913Z,13.20
2019-04-16T15:24:41.375Z,10.57
2019-04-16T15:26:23.549Z,10.03
2019-04-16T15:28:05.647Z,12.63
2019-04-16T15:30:02.230Z,13.80
2019-04-16T15:31:55.539Z,11.47
2019-04-16T15:33:46.563Z,12.47
2019-04-16T15:35:27.165Z,11.87
2019-04-16T15:37:16.398Z,12.37
2019-04-16T15:38:59.353Z,14.80
2019-04-16T15:40:39.615Z,12.83
2019-04-16T15:42:29.343Z,12.07
2019-04-16T15:44:16.335Z,12.83
2019-04-16T15:46:25.305Z,18.10
2019-04-16T15:47:54.471Z,17.43
2019-04-16T15:49:39.886Z,15.13
2019-04-16T15:51:22.790Z,11.73
2019-04-16T15:52:59.650Z,13.13
2019-04-16T15:54:45.333Z,13.57
2019-04-16T15:56:51.025Z,11.83
2019-04-16T15:58:43.618Z,12.17
2019-04-16T16:00:36.287Z,12.83
2019-04-16T16:02:23.809Z,12.13
2019-04-16T16:04:10.010Z,10.83
2019-04-16T16:05:50.897Z,12.77
2019-04-16T16:07:28.478Z,11.33
2019-04-16T16:09:13.393Z,10.50
2019-04-16T16:10:52.120Z,10.07
2019-04-16T16:12:28.253Z,13.17
2019-04-16T16:14:02.619Z,10.97
2019-04-16T16:15:40.225Z,13.03
2019-04-16T16:17:13.346Z,13.57
2019-04-16T16:18:47.696Z,13.90
2019-04-16T16:20:22.211Z,10.73
2019-04-16T16:21:56.649Z,13.83
2019-04-16T16:23:34.078Z,12.03
2019-04-16T16:25:08.049Z,14.93
2019-04-16T16:26:42.500Z,13.33
2019-04-16T16:28:17.136Z,11.77
2019-04-16T16:29:51.506Z,13.97
2019-04-16T16:31:25.861Z,13.27
2019-04-16T16:33:00.735Z,11.67
2019-04-16T16:34:35.486Z,14.17
2019-04-16T16:36:09.833Z,13.37
2019-04-16T16:37:44.429Z,14.57
2019-04-16T16:39:18.978Z,14.37
2019-04-16T16:40:53.590Z,14.20
2019-04-16T16:42:27.957Z,13.93
2019-04-16T16:44:02.634Z,13.87
2019-04-16T16:46:11.282Z,13.53
2019-04-16T16:47:45.741Z,13.37
2019-04-16T16:49:20.177Z,12.33
2019-04-16T16:50:54.773Z,10.40
2019-04-16T16:52:49.949Z,13.90
2019-04-16T16:54:25.845Z,12.87
2019-04-16T16:56:06.989Z,14.67
2019-04-16T16:57:52.049Z,16.30
2019-04-16T16:59:29.436Z,14.13
2019-04-16T17:01:23.481Z,12.50
2019-04-16T17:03:09.765Z,14.00
2019-04-16T17:04:46.085Z,12.17
2019-04-16T17:06:21.298Z,11.23
2019-04-16T17:07:55.885Z,11.33
2019-04-16T17:09:36.975Z,9.77
2019-04-16T17:11:16.739Z,14.97
2019-04-16T17:12:47.717Z,10.30
2019-04-16T17:14:22.179Z,12.90
2019-04-16T17:15:56.707Z,13.23
2019-04-16T17:17:31.130Z,14.37
2019-04-16T17:19:05.617Z,12.60
2019-04-16T17:20:41.472Z,13.33
2019-04-16T17:22:17.472Z,12.07
2019-04-16T17:23:52.533Z,12.73
2019-04-16T17:25:36.247Z,11.77
2019-04-16T17:27:03.149Z,10.53
2019-04-16T17:28:40.309Z,15.27
2019-04-16T17:30:13.757Z,13.73
2019-04-16T17:31:48.678Z,12.50
2019-04-16T17:33:23.306Z,12.63
2019-04-16T17:34:57.916Z,12.37
2019-04-16T17:36:32.609Z,10.87
2019-04-16T17:38:07.477Z,12.00
2019-04-16T17:39:48.305Z,13.23
2019-04-16T17:41:26.484Z,13.33
2019-04-16T17:43:04.889Z,12.53
2019-04-16T17:45:10.789Z,13.00
2019-04-16T17:47:07.473Z,13.13
2019-04-16T17:49:06.093Z,13.50
2019-04-16T17:50:52.822Z,12.77
2019-04-16T17:52:30.980Z,12.27
2019-04-16T17:54:24.145Z,10.67
2019-04-16T17:56:17.626Z,15.80
2019-04-16T17:57:56.586Z,10.97
2019-04-16T17:59:56.713Z,13.03
2019-04-16T18:01:49.326Z,10.67
2019-04-16T18:03:42.168Z,14.07
2019-04-16T18:05:34.425Z,10.97
2019-04-16T18:07:26.311Z,14.63
2019-04-16T18:09:21.598Z,13.23
2019-04-16T18:11:06.438Z,13.90
2019-04-16T18:12:57.962Z,28.90
2019-04-16T18:14:50.352Z,27.83
2019-04-16T18:16:29.162Z,40.73
2019-04-16T18:18:09.608Z,26.23
2019-04-16T18:20:09.206Z,19.40
2019-04-16T18:21:48.296Z,19.67
2019-04-16T18:23:36.508Z,18.13
2019-04-16T18:25:37.597Z,17.47
2019-04-16T18:27:31.051Z,16.07
2019-04-16T18:29:24.573Z,13.63
2019-04-16T18:31:07.293Z,16.87
2019-04-16T18:33:09.261Z,15.50
2019-04-16T18:34:56.585Z,14.67
2019-04-16T18:36:34.808Z,14.40
2019-04-16T18:38:34.512Z,11.47
2019-04-16T18:40:27.103Z,13.97
2019-04-16T18:42:05.802Z,16.07
2019-04-16T18:44:04.953Z,13.77
2019-04-16T18:45:57.505Z,13.57
2019-04-16T18:47:34.464Z,15.13
2019-04-16T18:49:14.299Z,12.47
2019-04-16T18:50:47.936Z,12.57
2019-04-16T18:52:22.297Z,11.90
2019-04-16T18:53:56.740Z,12.63
2019-04-16T18:55:31.123Z,11.77
2019-04-16T18:57:05.735Z,11.70
2019-04-16T18:58:41.850Z,12.37
2019-04-16T19:00:41.401Z,13.93
2019-04-16T19:02:16.075Z,14.00
2019-04-16T19:03:50.685Z,12.77
2019-04-16T19:05:25.486Z,12.83
2019-04-16T19:06:59.864Z,15.67
2019-04-16T19:08:41.514Z,13.50
2019-04-16T19:10:10.843Z,11.33
2019-04-16T19:11:45.201Z,14.87
2019-04-16T19:13:20.095Z,13.03
2019-04-16T19:14:55.322Z,13.60
2019-04-16T19:16:30.034Z,15.27
2019-04-16T19:18:18.386Z,13.10
2019-04-16T19:19:44.485Z,14.20
2019-04-16T19:21:17.080Z,14.37
2019-04-16T19:22:51.525Z,12.60
2019-04-16T19:24:25.872Z,12.27
2019-04-16T19:26:00.494Z,14.17
2019-04-16T19:27:34.853Z,13.83
2019-04-16T19:29:13.132Z,14.07
2019-04-16T19:30:45.430Z,13.98
2019-04-16T19:32:19.876Z,13.68
2019-04-16T19:33:54.526Z,13.05
2019-04-16T19:35:28.886Z,14.38
2019-04-16T19:37:03.717Z,13.55
2019-04-16T19:38:39.564Z,14.07
2019-04-16T19:40:16.023Z,15.32
2019-04-16T19:41:52.961Z,14.18
2019-04-16T19:43:28.625Z,14.35
2019-04-16T19:45:05.411Z,14.73
2019-04-16T19:46:40.167Z,17.50
2019-04-16T19:48:17.910Z,15.43
2019-04-16T19:49:51.360Z,15.28
2019-04-16T19:51:26.086Z,15.00
2019-04-16T19:53:00.447Z,14.53
2019-04-16T19:54:34.823Z,13.62
2019-04-16T19:56:09.273Z,15.88
2019-04-16T19:57:44.250Z,14.13
2019-04-16T19:59:18.592Z,14.68
2019-04-16T20:00:53.933Z,16.45
2019-04-16T20:02:32.967Z,15.28
2019-04-16T20:04:09.241Z,14.15
2019-04-16T20:05:41.662Z,16.00
2019-04-16T20:07:16.044Z,13.53
2019-04-16T20:08:50.650Z,13.62
2019-04-16T20:10:25.008Z,14.35
2019-04-16T20:11:59.380Z,15.25
2019-04-16T20:13:34.116Z,14.00
2019-04-16T20:15:09.794Z,16.07
2019-04-16T20:16:44.685Z,13.53
2019-04-16T20:18:22.176Z,14.35
2019-04-16T20:19:59.779Z,14.60
2019-04-16T20:21:37.469Z,17.90
2019-04-16T20:23:10.724Z,14.23
2019-04-16T20:24:45.090Z,14.98
2019-04-16T20:26:19.440Z,14.80
2019-04-16T20:27:54.005Z,15.43
2019-04-16T20:29:28.446Z,14.98
2019-04-16T20:31:04.472Z,13.48
2019-04-16T20:32:42.284Z,15.23
2019-04-16T20:34:18.189Z,14.07
2019-04-16T20:35:53.467Z,14.43
2019-04-16T20:37:28.340Z,14.47
2019-04-16T20:39:03.567Z,16.48
2019-04-16T20:40:38.377Z,15.00
2019-04-16T20:42:13.884Z,15.63
2019-04-16T20:43:48.632Z,13.72
2019-04-16T20:45:23.733Z,14.55
2019-04-16T20:47:02.336Z,16.45
2019-04-16T20:48:35.296Z,14.30
2019-04-16T20:50:10.427Z,16.35
2019-04-16T20:51:45.586Z,13.58
2019-04-16T20:53:20.377Z,16.75
2019-04-16T20:54:55.966Z,15.58
2019-04-16T20:56:31.264Z,15.80
2019-04-16T20:58:06.170Z,18.00
2019-04-16T20:59:41.222Z,14.63
2019-04-16T21:01:32.218Z,15.50
2019-04-16T21:02:54.176Z,16.73
2019-04-16T21:04:29.166Z,15.18
2019-04-16T21:06:07.135Z,15.83
2019-04-16T21:07:43.922Z,15.48
2019-04-16T21:09:18.477Z,15.65
2019-04-16T21:10:53.575Z,16.30
2019-04-16T21:12:28.603Z,15.10
2019-04-16T21:14:03.037Z,15.83
2019-04-16T21:15:37.405Z,15.85
2019-04-16T21:17:11.845Z,14.73
2019-04-16T21:18:46.217Z,14.38
2019-04-16T21:20:20.837Z,16.37
2019-04-16T21:21:56.949Z,14.75
2019-04-16T21:23:34.208Z,14.45
2019-04-16T21:25:12.710Z,16.32
2019-04-16T21:26:44.273Z,13.25
2019-04-16T21:28:25.917Z,17.70
2019-04-16T21:30:03.078Z,14.85
2019-04-16T21:31:42.379Z,14.87
2019-04-16T21:33:24.419Z,15.95
2019-04-16T21:35:01.067Z,14.65
2019-04-16T21:36:40.734Z,16.07
2019-04-16T21:38:42.161Z,15.40